createdAt,value
2023-05-12T00:00:19.786Z,20.00
2023-05-12T00:01:19.671Z,19.99
2023-05-12T00:02:19.865Z,19.99
2023-05-12T00:03:20.129Z,19.99
2023-05-12T00:04:20.204Z,19.99
2023-05-12T00:05:20.340Z,19.96
2023-05-12T00:06:20.503Z,19.99
2023-05-12T00:07:20.706Z,19.99
2023-05-12T00:08:20.876Z,19.96
2023-05-12T00:09:21.032Z,19.94
2023-05-12T00:10:21.597Z,19.92
2023-05-12T00:11:21.378Z,19.94
2023-05-12T00:12:21.548Z,19.91
2023-05-12T00:13:21.723Z,19.89
2023-05-12T00:14:21.871Z,19.91
2023-05-12T00:15:22.065Z,19.88
2023-05-12T00:16:22.277Z,19.88
2023-05-12T00:17:22.448Z,19.86
2023-05-12T00:18:22.602Z,19.86
2023-05-12T00:19:22.743Z,19.84
2023-05-12T00:20:22.961Z,19.81
2023-05-12T00:21:23.089Z,19.77
2023-05-12T00:22:23.252Z,19.76
2023-05-12T00:23:23.414Z,19.76
2023-05-12T00:24:23.566Z,19.71
2023-05-12T00:25:23.762Z,19.73
2023-05-12T00:26:23.923Z,19.73
2023-05-12T00:27:24.117Z,19.74
2023-05-12T00:28:24.277Z,19.74
2023-05-12T00:29:24.460Z,19.71
2023-05-12T00:30:24.644Z,19.74
2023-05-12T00:31:24.861Z,19.74
2023-05-12T00:32:24.992Z,19.71
2023-05-12T00:33:25.169Z,19.73
2023-05-12T00:34:25.324Z,19.70
2023-05-12T00:35:25.548Z,19.70
2023-05-12T00:36:25.659Z,19.67
2023-05-12T00:37:25.853Z,19.69
2023-05-12T00:38:26.010Z,19.69
2023-05-12T00:39:26.221Z,19.67
2023-05-12T00:40:26.374Z,19.67
2023-05-12T00:41:26.560Z,19.66
2023-05-12T00:42:26.716Z,19.69
2023-05-12T00:43:26.914Z,19.66
2023-05-12T00:44:27.081Z,19.67
2023-05-12T00:45:27.243Z,19.66
2023-05-12T00:46:27.544Z,19.64
2023-05-12T00:47:27.599Z,19.62
2023-05-12T00:48:27.789Z,19.59
2023-05-12T00:49:27.945Z,19.58
2023-05-12T00:50:28.118Z,19.56
2023-05-12T00:51:28.306Z,19.55
2023-05-12T00:52:28.447Z,19.55
2023-05-12T00:53:37.565Z,19.55
2023-05-12T00:54:29.812Z,19.55
2023-05-12T00:55:28.991Z,19.52
2023-05-12T00:56:29.180Z,19.51
2023-05-12T00:57:29.344Z,19.51
2023-05-12T00:58:29.510Z,19.51
2023-05-12T00:59:29.729Z,19.48
2023-05-12T01:00:29.900Z,19.48
2023-05-12T01:01:30.134Z,19.45
2023-05-12T01:02:30.373Z,19.44
2023-05-12T01:03:30.554Z,19.45
2023-05-12T01:04:30.625Z,19.45
2023-05-12T01:05:30.792Z,19.45
2023-05-12T01:06:30.949Z,19.45
2023-05-12T01:07:31.140Z,19.45
2023-05-12T01:08:31.292Z,19.44
2023-05-12T01:09:31.453Z,19.45
2023-05-12T01:10:31.618Z,19.45
2023-05-12T01:11:31.797Z,19.47
2023-05-12T01:12:31.953Z,19.44
2023-05-12T01:13:32.112Z,19.45
2023-05-12T01:14:32.277Z,19.47
2023-05-12T01:15:32.476Z,19.45
2023-05-12T01:16:32.638Z,19.45
2023-05-12T01:17:32.938Z,19.45
2023-05-12T01:18:33.095Z,19.44
2023-05-12T01:19:33.154Z,19.44
2023-05-12T01:20:33.306Z,19.41
2023-05-12T01:21:33.519Z,19.41
2023-05-12T01:22:33.906Z,19.44
2023-05-12T01:23:33.832Z,19.41
2023-05-12T01:24:33.990Z,19.44
2023-05-12T01:25:34.161Z,19.39
2023-05-12T01:26:34.343Z,19.37
2023-05-12T01:27:34.513Z,19.37
2023-05-12T01:28:34.694Z,19.34
2023-05-12T01:29:34.853Z,19.36
2023-05-12T01:30:35.021Z,19.33
2023-05-12T01:31:35.255Z,19.30
2023-05-12T01:32:35.371Z,19.29
2023-05-12T01:33:35.519Z,19.27
2023-05-12T01:34:35.687Z,19.26
2023-05-12T01:35:35.864Z,19.26
2023-05-12T01:36:36.037Z,19.22
2023-05-12T01:37:36.179Z,19.22
2023-05-12T01:38:36.349Z,19.21
2023-05-12T01:39:36.529Z,19.18
2023-05-12T01:40:36.694Z,19.15
2023-05-12T01:41:36.887Z,19.16
2023-05-12T01:42:37.019Z,19.18
2023-05-12T01:43:37.201Z,19.15
2023-05-12T01:44:37.396Z,19.15
2023-05-12T01:45:37.570Z,19.16
2023-05-12T01:46:37.803Z,19.15
2023-05-12T01:47:38.018Z,19.14
2023-05-12T01:48:38.072Z,19.12
2023-05-12T01:49:38.286Z,19.15
2023-05-12T01:50:38.455Z,19.12
2023-05-12T01:51:38.673Z,19.11
2023-05-12T01:52:38.810Z,19.12
2023-05-12T01:53:38.984Z,19.09
2023-05-12T01:54:39.151Z,19.09
2023-05-12T01:55:39.313Z,19.08
2023-05-12T01:56:39.473Z,19.09
2023-05-12T01:57:39.668Z,19.07
2023-05-12T01:58:39.830Z,19.08
2023-05-12T01:59:40.027Z,19.07
2023-05-12T02:00:40.216Z,19.08
2023-05-12T02:01:40.404Z,19.08
2023-05-12T02:02:42.946Z,19.04
2023-05-12T02:03:40.803Z,19.04
2023-05-12T02:04:40.932Z,19.02
2023-05-12T02:05:41.091Z,18.99
2023-05-12T02:06:41.248Z,18.98
2023-05-12T02:07:41.444Z,18.98
2023-05-12T02:08:41.680Z,18.93
2023-05-12T02:09:41.788Z,18.93
2023-05-12T02:10:41.970Z,18.92
2023-05-12T02:11:42.150Z,18.92
2023-05-12T02:12:42.325Z,18.92
2023-05-12T02:13:42.512Z,18.92
2023-05-12T02:14:42.667Z,18.92
2023-05-12T02:15:42.843Z,18.90
2023-05-12T02:16:43.020Z,18.90
2023-05-12T02:17:43.227Z,18.90
2023-05-12T02:18:43.388Z,18.90
2023-05-12T02:19:43.555Z,18.90
2023-05-12T02:20:43.720Z,18.90
2023-05-12T02:21:43.880Z,18.89
2023-05-12T02:22:44.040Z,18.89
2023-05-12T02:23:44.202Z,18.90
2023-05-12T02:24:44.410Z,18.90
2023-05-12T02:25:44.537Z,18.89
2023-05-12T02:26:44.738Z,18.88
2023-05-12T02:27:44.910Z,18.86
2023-05-12T02:28:45.057Z,18.84
2023-05-12T02:29:45.226Z,18.88
2023-05-12T02:30:45.400Z,18.86
2023-05-12T02:31:45.603Z,18.86
2023-05-12T02:32:45.747Z,18.83
2023-05-12T02:33:45.902Z,18.84
2023-05-12T02:34:46.065Z,18.84
2023-05-12T02:35:46.271Z,18.84
2023-05-12T02:36:46.436Z,18.83
2023-05-12T02:37:46.582Z,18.81
2023-05-12T02:38:46.774Z,18.78
2023-05-12T02:39:46.968Z,18.77
2023-05-12T02:40:47.128Z,18.74
2023-05-12T02:41:47.323Z,18.75
2023-05-12T02:42:47.484Z,18.74
2023-05-12T02:43:47.639Z,18.74
2023-05-12T02:44:47.823Z,18.73
2023-05-12T02:45:48.063Z,18.73
2023-05-12T02:46:48.189Z,18.71
2023-05-12T02:47:48.403Z,18.68
2023-05-12T02:48:48.569Z,18.68
2023-05-12T02:49:48.721Z,18.68
2023-05-12T02:50:48.869Z,18.65
2023-05-12T02:51:49.064Z,18.63
2023-05-12T02:52:49.222Z,18.63
2023-05-12T02:53:49.403Z,18.60
2023-05-12T02:54:49.555Z,18.63
2023-05-12T02:55:49.730Z,18.62
2023-05-12T02:56:49.944Z,18.60
2023-05-12T02:57:50.072Z,18.60
2023-05-12T02:58:50.253Z,18.59
2023-05-12T02:59:50.447Z,18.59
2023-05-12T03:00:59.844Z,18.58
2023-05-12T03:01:51.814Z,18.59
2023-05-12T03:02:51.071Z,18.59
2023-05-12T03:03:51.187Z,18.58
2023-05-12T03:04:51.328Z,18.55
2023-05-12T03:05:51.496Z,18.50
2023-05-12T03:06:51.695Z,18.52
2023-05-12T03:07:51.854Z,18.49
2023-05-12T03:08:51.999Z,18.47
2023-05-12T03:09:52.199Z,18.44
2023-05-12T03:10:52.385Z,18.43
2023-05-12T03:11:52.567Z,18.38
2023-05-12T03:12:52.733Z,18.35
2023-05-12T03:13:52.944Z,18.37
2023-05-12T03:14:53.141Z,18.35
2023-05-12T03:15:53.349Z,18.35
2023-05-12T03:16:53.506Z,18.35
2023-05-12T03:17:53.676Z,18.35
2023-05-12T03:18:53.962Z,18.35
2023-05-12T03:19:53.975Z,18.38
2023-05-12T03:20:54.161Z,18.38
2023-05-12T03:21:54.319Z,18.38
2023-05-12T03:22:54.491Z,18.38
2023-05-12T03:23:54.647Z,18.35
2023-05-12T03:24:54.823Z,18.35
2023-05-12T03:25:54.977Z,18.37
2023-05-12T03:26:55.151Z,18.34
2023-05-12T03:27:55.353Z,18.38
2023-05-12T03:28:55.546Z,18.38
2023-05-12T03:29:55.695Z,18.40
2023-05-12T03:30:55.883Z,18.38
2023-05-12T03:31:56.025Z,18.40
2023-05-12T03:32:56.284Z,18.40
2023-05-12T03:33:56.373Z,18.41
2023-05-12T03:34:56.576Z,18.40
2023-05-12T03:35:56.746Z,18.40
2023-05-12T03:36:56.918Z,18.43
2023-05-12T03:37:57.096Z,18.43
2023-05-12T03:38:57.276Z,18.41
2023-05-12T03:39:57.448Z,18.43
2023-05-12T03:40:57.621Z,18.43
2023-05-12T03:41:57.789Z,18.43
2023-05-12T03:42:57.970Z,18.43
2023-05-12T03:43:58.125Z,18.43
2023-05-12T03:44:58.310Z,18.41
2023-05-12T03:45:58.513Z,18.38
2023-05-12T03:46:58.861Z,18.40
2023-05-12T03:47:58.848Z,18.38
2023-05-12T03:48:59.004Z,18.35
2023-05-12T03:49:59.175Z,18.34
2023-05-12T03:50:59.320Z,18.33
2023-05-12T03:51:59.508Z,18.29
2023-05-12T03:52:59.679Z,18.33
2023-05-12T03:53:59.851Z,18.33
2023-05-12T03:55:00.027Z,18.33
2023-05-12T03:56:00.189Z,18.33
2023-05-12T03:57:00.374Z,18.33
2023-05-12T03:58:00.544Z,18.33
2023-05-12T03:59:00.722Z,18.35
2023-05-12T04:00:00.895Z,18.34
2023-05-12T04:01:01.053Z,18.34
2023-05-12T04:02:01.251Z,18.35
2023-05-12T04:03:01.535Z,18.34
2023-05-12T04:04:01.680Z,18.34
2023-05-12T04:05:01.779Z,18.33
2023-05-12T04:06:01.960Z,18.34
2023-05-12T04:07:02.119Z,18.34
2023-05-12T04:08:02.306Z,18.33
2023-05-12T04:09:02.476Z,18.33
2023-05-12T04:10:02.654Z,18.34
2023-05-12T04:11:02.829Z,18.34
2023-05-12T04:12:02.999Z,18.34
2023-05-12T04:13:03.181Z,18.37
2023-05-12T04:14:03.322Z,18.35
2023-05-12T04:15:03.492Z,18.35
2023-05-12T04:16:03.716Z,18.40
2023-05-12T04:17:03.872Z,18.37
2023-05-12T04:18:04.073Z,18.38
2023-05-12T04:19:04.260Z,18.38
2023-05-12T04:20:04.384Z,18.37
2023-05-12T04:21:04.553Z,18.37
2023-05-12T04:22:04.703Z,18.34
2023-05-12T04:23:04.893Z,18.33
2023-05-12T04:24:05.071Z,18.33
2023-05-12T04:25:05.258Z,18.34
2023-05-12T04:26:05.464Z,18.33
2023-05-12T04:27:05.589Z,18.29
2023-05-12T04:28:05.734Z,18.29
2023-05-12T04:29:05.924Z,18.29
2023-05-12T04:30:06.100Z,18.29
2023-05-12T04:31:06.280Z,18.31
2023-05-12T04:32:06.493Z,18.31
2023-05-12T04:33:06.637Z,18.33
2023-05-12T04:34:06.815Z,18.29
2023-05-12T04:35:06.996Z,18.31
2023-05-12T04:36:07.179Z,18.29
2023-05-12T04:37:07.357Z,18.28
2023-05-12T04:38:07.520Z,18.31
2023-05-12T04:39:07.701Z,18.31
2023-05-12T04:40:07.881Z,18.34
2023-05-12T04:41:08.048Z,18.35
2023-05-12T04:42:08.226Z,18.37
2023-05-12T04:43:08.409Z,18.40
2023-05-12T04:44:08.604Z,18.41
2023-05-12T04:45:08.809Z,18.44
2023-05-12T04:46:09.075Z,18.43
2023-05-12T04:47:09.139Z,18.45
2023-05-12T04:48:09.307Z,18.47
2023-05-12T04:49:09.497Z,18.49
2023-05-12T04:50:09.659Z,18.50
2023-05-12T04:51:09.849Z,18.53
2023-05-12T04:52:09.992Z,18.55
2023-05-12T04:53:11.400Z,18.65
2023-05-12T04:54:10.355Z,18.81
2023-05-12T04:55:10.545Z,18.90
2023-05-12T04:56:10.710Z,18.93
2023-05-12T04:57:10.881Z,18.95
2023-05-12T04:58:11.064Z,18.92
2023-05-12T04:59:11.239Z,18.93
2023-05-12T05:00:11.430Z,18.95
2023-05-12T05:01:11.661Z,18.98
2023-05-12T05:02:11.805Z,18.98
2023-05-12T05:03:12.136Z,19.00
2023-05-12T05:04:12.123Z,18.99
2023-05-12T05:05:12.327Z,19.00
2023-05-12T05:06:12.466Z,18.99
2023-05-12T05:07:12.632Z,19.00
2023-05-12T05:08:12.815Z,19.02
2023-05-12T05:09:13.002Z,19.07
2023-05-12T05:10:13.157Z,19.04
2023-05-12T05:11:13.298Z,19.07
2023-05-12T05:12:13.480Z,19.04
2023-05-12T05:13:13.657Z,19.07
2023-05-12T05:14:13.844Z,19.08
2023-05-12T05:15:13.988Z,19.14
2023-05-12T05:16:14.190Z,19.19
2023-05-12T05:17:14.358Z,19.21
2023-05-12T05:18:14.598Z,19.27
2023-05-12T05:19:21.695Z,19.36
2023-05-12T05:20:15.922Z,19.52
2023-05-12T05:21:15.032Z,19.77
2023-05-12T05:22:15.225Z,19.92
2023-05-12T05:23:15.385Z,19.92
2023-05-12T05:24:15.569Z,20.03
2023-05-12T05:25:15.751Z,20.28
2023-05-12T05:26:15.938Z,20.43
2023-05-12T05:27:16.094Z,20.50
2023-05-12T05:28:16.265Z,20.81
2023-05-12T05:29:16.434Z,21.11
2023-05-12T05:30:16.601Z,21.15
2023-05-12T05:31:16.799Z,21.09
2023-05-12T05:32:16.916Z,21.06
2023-05-12T05:33:17.123Z,21.32
2023-05-12T05:34:17.295Z,21.67
2023-05-12T05:35:17.645Z,22.04
2023-05-12T05:36:17.601Z,22.32
2023-05-12T05:37:17.767Z,22.29
2023-05-12T05:38:17.932Z,22.28
2023-05-12T05:39:18.132Z,22.45
2023-05-12T05:40:18.313Z,22.69
2023-05-12T05:41:18.493Z,23.05
2023-05-12T05:42:18.659Z,23.17
2023-05-12T05:43:18.831Z,23.32
2023-05-12T05:44:19.008Z,23.54
2023-05-12T05:45:19.245Z,23.76
2023-05-12T05:46:19.341Z,24.06
2023-05-12T05:47:19.621Z,24.32
2023-05-12T05:48:19.653Z,24.65
2023-05-12T05:49:19.863Z,24.93
2023-05-12T05:50:20.016Z,25.22
2023-05-12T05:51:20.215Z,25.51
2023-05-12T05:52:20.329Z,25.85
2023-05-12T05:53:20.526Z,26.22
2023-05-12T05:54:20.736Z,26.59
2023-05-12T05:55:21.127Z,26.74
2023-05-12T05:56:21.060Z,26.70
2023-05-12T05:57:21.240Z,26.58
2023-05-12T05:58:21.358Z,26.52
2023-05-12T05:59:21.563Z,26.65
2023-05-12T06:00:21.700Z,26.96
2023-05-12T06:01:21.872Z,27.17
2023-05-12T06:02:22.091Z,27.42
2023-05-12T06:03:22.304Z,27.65
2023-05-12T06:04:22.471Z,27.86
2023-05-12T06:05:22.760Z,27.98
2023-05-12T06:06:22.749Z,27.96
2023-05-12T06:07:22.944Z,27.93
2023-05-12T06:08:23.128Z,27.78
2023-05-12T06:09:23.314Z,27.86
2023-05-12T06:10:23.487Z,28.01
2023-05-12T06:11:23.652Z,28.20
2023-05-12T06:12:23.814Z,28.49
2023-05-12T06:13:24.009Z,28.85
2023-05-12T06:14:24.155Z,29.16
2023-05-12T06:15:24.331Z,29.47
2023-05-12T06:16:24.508Z,29.84
2023-05-12T06:17:24.797Z,30.05
2023-05-12T06:18:24.925Z,30.28
2023-05-12T06:19:25.039Z,30.39
2023-05-12T06:20:25.221Z,30.47
2023-05-12T06:21:25.410Z,30.54
2023-05-12T06:22:25.585Z,30.75
2023-05-12T06:23:25.738Z,30.92
2023-05-12T06:24:25.926Z,31.05
2023-05-12T06:25:26.077Z,31.22
2023-05-12T06:26:26.260Z,31.34
2023-05-12T06:27:26.480Z,31.44
2023-05-12T06:28:26.661Z,31.49
2023-05-12T06:29:26.806Z,31.61
2023-05-12T06:30:26.987Z,31.58
2023-05-12T06:31:27.236Z,31.55
2023-05-12T06:32:27.396Z,31.52
2023-05-12T06:33:27.514Z,31.58
2023-05-12T06:34:27.703Z,31.61
2023-05-12T06:35:27.877Z,31.64
2023-05-12T06:36:28.177Z,31.56
2023-05-12T06:37:28.244Z,31.65
2023-05-12T06:38:28.390Z,31.80
2023-05-12T06:39:28.558Z,32.01
2023-05-12T06:40:28.748Z,32.19
2023-05-12T06:41:28.944Z,32.41
2023-05-12T06:42:29.089Z,32.63
2023-05-12T06:43:29.302Z,32.78
2023-05-12T06:44:29.450Z,32.87
2023-05-12T06:45:29.657Z,32.97
2023-05-12T06:46:29.888Z,33.08
2023-05-12T06:47:30.009Z,33.22
2023-05-12T06:48:30.178Z,33.30
2023-05-12T06:49:30.352Z,33.42
2023-05-12T06:50:30.537Z,33.40
2023-05-12T06:51:30.714Z,33.40
2023-05-12T06:52:30.867Z,33.49
2023-05-12T06:53:31.044Z,33.58
2023-05-12T06:54:31.227Z,33.68
2023-05-12T06:55:31.427Z,33.74
2023-05-12T06:56:31.577Z,33.87
2023-05-12T06:57:31.760Z,33.90
2023-05-12T06:58:31.943Z,33.94
2023-05-12T06:59:32.153Z,33.99
2023-05-12T07:00:32.353Z,33.96
2023-05-12T07:01:32.512Z,33.94
2023-05-12T07:02:32.768Z,34.01
2023-05-12T07:03:32.913Z,34.11
2023-05-12T07:04:33.034Z,34.27
2023-05-12T07:05:33.276Z,34.40
2023-05-12T07:06:33.374Z,34.29
2023-05-12T07:07:33.528Z,34.21
2023-05-12T07:08:33.731Z,34.24
2023-05-12T07:09:33.896Z,34.32
2023-05-12T07:10:34.039Z,34.43
2023-05-12T07:11:34.243Z,34.52
2023-05-12T07:12:34.399Z,34.73
2023-05-12T07:13:34.589Z,34.83
2023-05-12T07:14:34.754Z,35.00
2023-05-12T07:15:34.910Z,35.17
2023-05-12T07:16:35.188Z,35.26
2023-05-12T07:17:35.430Z,35.26
2023-05-12T07:18:35.509Z,35.24
2023-05-12T07:19:35.647Z,35.22
2023-05-12T07:20:35.835Z,35.24
2023-05-12T07:21:35.998Z,35.26
2023-05-12T07:22:38.469Z,35.36
2023-05-12T07:23:36.350Z,35.44
2023-05-12T07:24:36.492Z,35.53
2023-05-12T07:25:36.725Z,35.56
2023-05-12T07:26:36.837Z,35.61
2023-05-12T07:27:37.016Z,35.67
2023-05-12T07:28:37.202Z,35.74
2023-05-12T07:29:37.398Z,35.82
2023-05-12T07:30:37.603Z,35.76
2023-05-12T07:31:37.846Z,35.55
2023-05-12T07:32:37.994Z,35.42
2023-05-12T07:33:38.102Z,35.31
2023-05-12T07:34:38.271Z,35.30
2023-05-12T07:35:38.511Z,35.27
2023-05-12T07:36:38.632Z,35.22
2023-05-12T07:37:38.779Z,35.24
2023-05-12T07:38:38.955Z,35.36
2023-05-12T07:39:39.150Z,35.52
2023-05-12T07:40:39.319Z,35.66
2023-05-12T07:41:39.512Z,35.74
2023-05-12T07:42:39.728Z,35.70
2023-05-12T07:43:39.881Z,35.70
2023-05-12T07:44:40.071Z,35.64
2023-05-12T07:45:40.189Z,35.66
2023-05-12T07:46:40.389Z,35.68
2023-05-12T07:47:40.569Z,35.60
2023-05-12T07:48:40.761Z,35.80
2023-05-12T07:49:40.898Z,35.90
2023-05-12T07:50:41.102Z,36.01
2023-05-12T07:51:41.265Z,36.18
2023-05-12T07:52:41.401Z,36.18
2023-05-12T07:53:41.570Z,36.16
2023-05-12T07:54:41.740Z,36.17
2023-05-12T07:55:41.879Z,36.16
2023-05-12T07:56:42.056Z,36.25
2023-05-12T07:57:42.260Z,36.54
2023-05-12T07:58:42.466Z,36.79
2023-05-12T07:59:42.614Z,37.02
2023-05-12T08:00:42.798Z,37.18
2023-05-12T08:01:42.978Z,37.33
2023-05-12T08:02:43.294Z,37.35
2023-05-12T08:03:43.385Z,37.42
2023-05-12T08:04:44.515Z,37.48
2023-05-12T08:05:43.686Z,37.59
2023-05-12T08:06:43.813Z,37.51
2023-05-12T08:07:44.063Z,37.49
2023-05-12T08:08:44.206Z,37.36
2023-05-12T08:09:44.355Z,37.30
2023-05-12T08:10:44.541Z,37.15
2023-05-12T08:11:47.104Z,37.13
2023-05-12T08:12:44.917Z,37.15
2023-05-12T08:13:45.075Z,37.08
2023-05-12T08:15:08.930Z,36.86
2023-05-12T08:15:45.396Z,36.65
2023-05-12T08:16:45.617Z,36.55
2023-05-12T08:17:45.803Z,36.54
2023-05-12T08:18:45.965Z,36.39
2023-05-12T08:19:46.110Z,36.35
2023-05-12T08:20:46.261Z,36.21
2023-05-12T08:21:46.451Z,36.16
2023-05-12T08:22:46.730Z,36.12
2023-05-12T08:23:46.819Z,36.25
2023-05-12T08:24:46.971Z,36.35
2023-05-12T08:25:47.126Z,36.31
2023-05-12T08:26:47.309Z,36.17
2023-05-12T08:27:47.484Z,36.04
2023-05-12T08:28:47.679Z,36.02
2023-05-12T08:29:47.861Z,36.09
2023-05-12T08:30:48.130Z,36.28
2023-05-12T08:31:48.222Z,36.45
2023-05-12T08:32:48.510Z,36.58
2023-05-12T08:33:51.918Z,36.52
2023-05-12T08:34:49.739Z,36.67
2023-05-12T08:35:48.938Z,36.84
2023-05-12T08:36:49.104Z,37.06
2023-05-12T08:37:49.298Z,37.21
2023-05-12T08:38:49.455Z,37.30
2023-05-12T08:39:49.630Z,37.44
2023-05-12T08:40:49.828Z,37.55
2023-05-12T08:41:49.983Z,37.37
2023-05-12T08:42:50.155Z,37.20
2023-05-12T08:43:50.329Z,37.08
2023-05-12T08:44:50.538Z,36.84
2023-05-12T08:45:50.660Z,36.83
2023-05-12T08:46:50.943Z,36.81
2023-05-12T08:47:51.031Z,36.91
2023-05-12T08:48:51.172Z,36.96
2023-05-12T08:49:52.442Z,37.01
2023-05-12T08:50:51.506Z,36.81
2023-05-12T08:51:57.772Z,36.72
2023-05-12T08:52:52.855Z,36.64
2023-05-12T08:53:52.235Z,36.67
2023-05-12T08:54:56.068Z,36.74
2023-05-12T08:57:09.066Z,36.99
2023-05-12T08:57:52.704Z,37.29
2023-05-12T08:58:52.870Z,37.20
2023-05-12T08:59:53.047Z,37.23
2023-05-12T09:00:53.273Z,36.92
2023-05-12T09:01:53.489Z,36.65
2023-05-12T09:02:54.654Z,36.59
2023-05-12T09:03:53.806Z,36.72
2023-05-12T09:04:53.990Z,36.99
2023-05-12T09:05:54.143Z,37.21
2023-05-12T09:06:55.946Z,37.58
2023-05-12T09:07:54.503Z,37.84
2023-05-12T09:08:54.657Z,38.05
2023-05-12T09:09:54.831Z,38.31
2023-05-12T09:10:55.059Z,38.49
2023-05-12T09:11:55.191Z,38.67
2023-05-12T09:12:55.374Z,38.87
2023-05-12T09:13:55.564Z,39.00
2023-05-12T09:14:55.702Z,38.84
2023-05-12T09:15:55.956Z,38.64
2023-05-12T09:16:56.048Z,38.50
2023-05-12T09:17:56.301Z,38.65
2023-05-12T09:18:56.509Z,38.68
2023-05-12T09:19:56.602Z,38.74
2023-05-12T09:20:56.763Z,38.73
2023-05-12T09:21:56.933Z,38.50
2023-05-12T09:22:57.085Z,38.24
2023-05-12T09:23:57.274Z,38.11
2023-05-12T09:24:57.476Z,37.99
2023-05-12T09:25:57.632Z,37.67
2023-05-12T09:26:57.827Z,37.64
2023-05-12T09:27:58.017Z,37.58
2023-05-12T09:28:58.194Z,37.65
2023-05-12T09:29:59.838Z,37.53
2023-05-12T09:30:58.492Z,37.47
2023-05-12T09:31:58.778Z,37.55
2023-05-12T09:32:58.941Z,37.74
2023-05-12T09:33:59.099Z,37.90
2023-05-12T09:34:59.222Z,37.99
2023-05-12T09:35:59.419Z,38.06
2023-05-12T09:36:59.599Z,38.21
2023-05-12T09:37:59.795Z,38.31
2023-05-12T09:38:59.970Z,38.43
2023-05-12T09:40:00.176Z,38.60
2023-05-12T09:41:00.271Z,38.60
2023-05-12T09:42:00.487Z,38.55
2023-05-12T09:43:00.663Z,38.46
2023-05-12T09:44:00.880Z,38.45
2023-05-12T09:45:00.982Z,38.26
2023-05-12T09:46:01.217Z,38.21
2023-05-12T09:47:01.328Z,38.38
2023-05-12T09:48:01.564Z,38.54
2023-05-12T09:49:01.680Z,38.80
2023-05-12T09:50:01.876Z,39.09
2023-05-12T09:51:02.030Z,39.31
2023-05-12T09:52:02.214Z,39.12
2023-05-12T09:53:02.975Z,39.06
2023-05-12T09:54:02.525Z,39.06
2023-05-12T09:55:02.727Z,39.09
2023-05-12T09:56:02.889Z,39.06
2023-05-12T09:57:03.021Z,38.99
2023-05-12T09:58:03.236Z,39.11
2023-05-12T09:59:03.381Z,39.19
2023-05-12T10:00:04.877Z,39.24
2023-05-12T10:01:21.067Z,38.95
2023-05-12T10:02:04.975Z,38.65
2023-05-12T10:03:04.182Z,38.54
2023-05-12T10:04:04.279Z,38.42
2023-05-12T10:05:04.466Z,38.12
2023-05-12T10:06:06.996Z,37.83
2023-05-12T10:07:04.848Z,37.39
2023-05-12T10:08:05.013Z,36.92
2023-05-12T10:09:05.156Z,36.45
2023-05-12T10:10:05.334Z,36.04
2023-05-12T10:11:05.509Z,35.60
2023-05-12T10:12:05.713Z,35.14
2023-05-12T10:13:05.862Z,34.70
2023-05-12T10:14:06.053Z,34.29
2023-05-12T10:15:06.211Z,33.80
2023-05-12T10:16:06.451Z,33.37
2023-05-12T10:17:06.755Z,32.96
2023-05-12T10:18:06.823Z,32.58
2023-05-12T10:19:06.979Z,32.12
2023-05-12T10:20:07.104Z,31.69
2023-05-12T10:21:07.311Z,31.37
2023-05-12T10:22:07.437Z,31.09
2023-05-12T10:23:07.621Z,30.87
2023-05-12T10:24:07.770Z,30.54
2023-05-12T10:25:07.954Z,30.28
2023-05-12T10:26:08.169Z,30.13
2023-05-12T10:27:08.303Z,30.02
2023-05-12T10:28:08.498Z,29.86
2023-05-12T10:29:08.638Z,29.65
2023-05-12T10:30:08.858Z,29.36
2023-05-12T10:31:09.139Z,29.05
2023-05-12T10:32:09.192Z,28.72
2023-05-12T10:33:09.381Z,28.47
2023-05-12T10:34:09.517Z,28.29
2023-05-12T10:35:09.675Z,28.11
2023-05-12T10:36:09.854Z,28.01
2023-05-12T10:37:10.042Z,27.96
2023-05-12T10:38:10.217Z,27.87
2023-05-12T10:39:10.390Z,27.71
2023-05-12T10:40:10.586Z,27.63
2023-05-12T10:41:10.722Z,27.52
2023-05-12T10:42:10.926Z,27.45
2023-05-12T10:43:11.079Z,27.36
2023-05-12T10:44:11.286Z,27.33
2023-05-12T10:45:11.422Z,27.35
2023-05-12T10:46:11.627Z,27.36
2023-05-12T10:47:13.170Z,27.36
2023-05-12T10:48:11.978Z,27.33
2023-05-12T10:49:12.128Z,27.29
2023-05-12T10:50:12.307Z,27.22
2023-05-12T10:51:12.474Z,27.17
2023-05-12T10:52:12.654Z,27.12
2023-05-12T10:53:12.843Z,27.03
2023-05-12T10:54:13.010Z,26.97
2023-05-12T10:55:13.317Z,26.96
2023-05-12T10:56:13.614Z,26.95
2023-05-12T10:57:17.118Z,26.96
2023-05-12T10:58:14.282Z,26.93
2023-05-12T10:59:14.772Z,26.92
2023-05-12T11:00:14.793Z,26.93
2023-05-12T11:01:14.776Z,26.95
2023-05-12T11:02:14.704Z,27.00
2023-05-12T11:03:15.942Z,27.08
2023-05-12T11:04:14.963Z,27.05
2023-05-12T11:05:15.102Z,27.11
2023-05-12T11:06:15.727Z,27.21
2023-05-12T11:07:16.513Z,27.32
2023-05-12T11:08:15.820Z,27.40
2023-05-12T11:09:15.790Z,27.49
2023-05-12T11:10:15.813Z,27.58
2023-05-12T11:11:16.024Z,27.59
2023-05-12T11:12:16.085Z,27.63
2023-05-12T11:13:16.246Z,27.55
2023-05-12T11:14:16.392Z,27.55
2023-05-12T11:15:18.098Z,27.59
2023-05-12T11:16:16.795Z,27.64
2023-05-12T11:17:16.927Z,27.63
2023-05-12T11:18:17.120Z,27.58
2023-05-12T11:19:17.243Z,27.58
2023-05-12T11:20:17.398Z,27.63
2023-05-12T11:21:17.578Z,27.73
2023-05-12T11:22:17.770Z,27.77
2023-05-12T11:23:17.888Z,27.75
2023-05-12T11:24:18.078Z,27.68
2023-05-12T11:25:18.449Z,27.55
2023-05-12T11:26:18.467Z,27.47
2023-05-12T11:27:18.600Z,27.39
2023-05-12T11:28:18.787Z,27.39
2023-05-12T11:29:18.927Z,27.44
2023-05-12T11:30:19.095Z,27.44
2023-05-12T11:31:19.325Z,27.51
2023-05-12T11:32:19.480Z,27.63
2023-05-12T11:33:19.612Z,27.67
2023-05-12T11:34:19.784Z,27.68
2023-05-12T11:35:20.225Z,27.65
2023-05-12T11:36:21.474Z,27.67
2023-05-12T11:37:20.377Z,27.74
2023-05-12T11:38:20.520Z,27.73
2023-05-12T11:39:20.704Z,27.73
2023-05-12T11:40:20.889Z,27.73
2023-05-12T11:41:21.056Z,27.74
2023-05-12T11:42:22.904Z,27.83
2023-05-12T11:43:21.431Z,27.90
2023-05-12T11:44:21.632Z,27.98
2023-05-12T11:45:22.206Z,28.11
2023-05-12T11:46:22.105Z,28.22
2023-05-12T11:47:22.155Z,28.26
2023-05-12T11:48:22.334Z,28.27
2023-05-12T11:49:22.517Z,28.20
2023-05-12T11:50:22.697Z,28.11
2023-05-12T11:51:22.919Z,27.98
2023-05-12T11:52:23.069Z,27.78
2023-05-12T11:53:23.222Z,27.63
2023-05-12T11:54:23.419Z,27.54
2023-05-12T11:55:23.643Z,27.48
2023-05-12T11:56:23.748Z,27.48
2023-05-12T11:57:23.913Z,27.48
2023-05-12T11:58:24.134Z,27.44
2023-05-12T11:59:24.286Z,27.40
2023-05-12T12:00:24.464Z,27.40
2023-05-12T12:01:24.640Z,27.42
2023-05-12T12:02:24.881Z,27.40
2023-05-12T12:03:25.052Z,27.36
2023-05-12T12:04:25.158Z,27.29
2023-05-12T12:05:25.316Z,27.18
2023-05-12T12:06:25.471Z,27.07
2023-05-12T12:07:25.643Z,26.92
2023-05-12T12:08:25.845Z,26.92
2023-05-12T12:09:26.009Z,26.96
2023-05-12T12:10:26.176Z,26.96
2023-05-12T12:11:26.359Z,27.05
2023-05-12T12:12:26.547Z,27.11
2023-05-12T12:13:26.729Z,27.12
2023-05-12T12:14:26.897Z,27.08
2023-05-12T12:15:27.080Z,27.05
2023-05-12T12:16:27.327Z,27.05
2023-05-12T12:17:27.522Z,27.03
2023-05-12T12:18:27.625Z,27.07
2023-05-12T12:19:27.785Z,27.14
2023-05-12T12:20:27.944Z,27.25
2023-05-12T12:21:28.124Z,27.30
2023-05-12T12:22:28.302Z,27.35
2023-05-12T12:23:33.276Z,27.30
2023-05-12T12:24:29.646Z,27.29
2023-05-12T12:25:28.844Z,27.25
2023-05-12T12:26:29.046Z,27.21
2023-05-12T12:27:29.194Z,27.14
2023-05-12T12:28:29.369Z,27.10
2023-05-12T12:29:29.578Z,27.03
2023-05-12T12:30:29.710Z,26.97
2023-05-12T12:31:29.932Z,26.88
2023-05-12T12:32:30.080Z,26.71
2023-05-12T12:33:30.222Z,26.59
2023-05-12T12:34:30.392Z,26.48
2023-05-12T12:35:30.562Z,26.45
2023-05-12T12:36:30.762Z,26.41
2023-05-12T12:37:30.939Z,26.41
2023-05-12T12:38:31.084Z,26.45
2023-05-12T12:39:31.286Z,26.51
2023-05-12T12:40:31.429Z,26.55
2023-05-12T12:41:31.612Z,26.59
2023-05-12T12:42:31.791Z,26.63
2023-05-12T12:43:31.979Z,26.66
2023-05-12T12:44:32.125Z,26.74
2023-05-12T12:45:32.341Z,26.81
2023-05-12T12:46:32.538Z,26.88
2023-05-12T12:47:32.712Z,26.92
2023-05-12T12:48:32.850Z,26.96
2023-05-12T12:49:33.040Z,26.99
2023-05-12T12:50:33.212Z,26.99
2023-05-12T12:51:44.576Z,26.99
2023-05-12T12:52:34.566Z,27.08
2023-05-12T12:53:33.720Z,27.11
2023-05-12T12:54:33.930Z,27.11
2023-05-12T12:55:34.079Z,27.08